Time;durP1;ratioP1;P1;durP2;ratioP2;P2;SDS_P1;SDS_P2;PMS_P1;PMS_P2;Temp;Humidity;BMP_temperature;BMP_pressure;BME280_temperature;BME280_humidity;BME280_pressure;Samples;Min_cycle;Max_cycle;Signal;HPM_P1;HPM_P2
2023/01/09 00:00:47;;;;;;;13.77;8.30;;;;;;;;;;5098880;28;20056;-88
2023/01/09 00:03:15;;;;;;;8.25;6.53;;;;;;;;;;5098606;28;20074;-87
2023/01/09 00:05:42;;;;;;;9.55;7.82;;;;;;;;;;5099763;28;20046;-87
2023/01/09 00:08:09;;;;;;;8.90;7.47;;;;;;;;;;5099040;28;20407;-88
2023/01/09 00:10:36;;;;;;;14.80;8.43;;;;;;;;;;5099963;28;20044;-87
2023/01/09 00:13:04;;;;;;;18.80;9.75;;;;;;;;;;5098706;28;20063;-88
2023/01/09 00:15:31;;;;;;;17.98;8.32;;;;;;;;;;5099544;28;20052;-88
2023/01/09 00:17:58;;;;;;;12.98;7.68;;;;;;;;;;5098949;28;20393;-87
2023/01/09 00:20:25;;;;;;;10.63;7.28;;;;;;;;;;5098732;28;20044;-87
2023/01/09 00:22:52;;;;;;;10.90;7.20;;;;;;;;;;5099129;28;20075;-88
2023/01/09 00:25:21;;;;;;;8.00;7.20;;;;;;;;;;5098877;28;20048;-87
2023/01/09 00:27:48;;;;;;;8.63;7.25;;;;;;;;;;5098795;28;20441;-88
2023/01/09 00:30:16;;;;;;;11.38;7.30;;;;;;;;;;5099046;28;20126;-88
2023/01/09 00:32:43;;;;;;;8.15;7.35;;;;;;;;;;5098766;28;20198;-87
2023/01/09 00:35:13;;;;;;;8.88;7.40;;;;;;;;;;5098621;28;20056;-88
2023/01/09 00:37:44;;;;;;;10.57;7.88;;;;;;;;;;5099730;28;20078;-87
2023/01/09 00:40:13;;;;;;;8.50;7.00;;;;;;;;;;5100062;28;20051;-87
2023/01/09 00:42:41;;;;;;;8.98;7.28;;;;;;;;;;5097253;28;20048;-87
2023/01/09 00:45:10;;;;;;;8.63;7.10;;;;;;;;;;5096606;28;20051;-86
2023/01/09 00:47:46;;;;;;;9.20;7.82;;;;;;;;;;5095007;28;20071;-87
2023/01/09 00:50:15;;;;;;;8.60;7.60;;;;;;;;;;5091558;28;20080;-87
2023/01/09 00:52:43;;;;;;;9.77;8.20;;;;;;;;;;5095214;28;20052;-88
2023/01/09 00:55:10;;;;;;;9.32;7.72;;;;;;;;;;5095429;28;20407;-87
2023/01/09 00:57:37;;;;;;;8.40;7.43;;;;;;;;;;5095076;28;20509;-86
2023/01/09 01:00:06;;;;;;;9.98;7.70;;;;;;;;;;5095156;28;20048;-86
2023/01/09 01:02:33;;;;;;;10.18;8.35;;;;;;;;;;5095283;28;20083;-87
2023/01/09 01:07:46;;;;;;;11.80;8.38;;;;;;;;;;5096275;28;20134;-85
2023/01/09 01:10:21;;;;;;;9.77;8.38;;;;;;;;;;5096191;28;20067;-87
2023/01/09 01:12:49;;;;;;;9.88;8.25;;;;;;;;;;5094981;28;20048;-85
2023/01/09 01:15:16;;;;;;;9.82;7.95;;;;;;;;;;5095780;28;20520;-87
2023/01/09 01:17:43;;;;;;;10.38;8.45;;;;;;;;;;5094406;28;20048;-86
2023/01/09 01:20:16;;;;;;;9.95;8.75;;;;;;;;;;5094617;28;20051;-86
2023/01/09 01:22:43;;;;;;;8.35;7.47;;;;;;;;;;5094655;28;20158;-85
2023/01/09 01:25:11;;;;;;;12.50;8.85;;;;;;;;;;5095563;28;20508;-86
2023/01/09 01:27:39;;;;;;;10.93;8.75;;;;;;;;;;5094422;28;20079;-86
2023/01/09 01:30:08;;;;;;;10.43;8.93;;;;;;;;;;5095723;28;20055;-86
2023/01/09 01:32:36;;;;;;;10.32;8.55;;;;;;;;;;5095688;28;20052;-87
2023/01/09 01:35:03;;;;;;;9.70;8.43;;;;;;;;;;5095720;28;20105;-87
2023/01/09 01:37:30;;;;;;;10.07;8.43;;;;;;;;;;5094086;28;20052;-87
2023/01/09 01:39:58;;;;;;;13.27;8.73;;;;;;;;;;5094175;28;20044;-86
2023/01/09 01:42:25;;;;;;;10.95;8.93;;;;;;;;;;5094317;28;20055;-87
2023/01/09 01:44:57;;;;;;;8.65;7.75;;;;;;;;;;5094180;28;20044;-85
2023/01/09 01:47:30;;;;;;;8.85;7.88;;;;;;;;;;5094126;28;20084;-86
2023/01/09 01:49:58;;;;;;;10.23;8.60;;;;;;;;;;5094053;28;20048;-86
2023/01/09 01:52:26;;;;;;;8.70;7.53;;;;;;;;;;5094026;28;20059;-86
2023/01/09 01:54:54;;;;;;;7.88;7.07;;;;;;;;;;5093711;28;20399;-86
2023/01/09 01:57:21;;;;;;;8.68;7.50;;;;;;;;;;5094645;28;20048;-86
2023/01/09 01:59:53;;;;;;;10.23;6.82;;;;;;;;;;5095083;28;20084;-86
2023/01/09 02:02:22;;;;;;;8.18;6.88;;;;;;;;;;5093688;28;20044;-86
2023/01/09 02:04:51;;;;;;;8.18;6.82;;;;;;;;;;5094685;28;20052;-85
2023/01/09 02:07:19;;;;;;;7.60;6.45;;;;;;;;;;5093747;28;20496;-85
2023/01/09 02:09:46;;;;;;;7.57;6.75;;;;;;;;;;5094643;28;20055;-86
2023/01/09 02:12:18;;;;;;;7.20;6.50;;;;;;;;;;5093582;28;20046;-87
2023/01/09 02:14:46;;;;;;;6.63;5.93;;;;;;;;;;5093537;28;20127;-86
2023/01/09 02:17:22;;;;;;;6.63;5.85;;;;;;;;;;5093220;28;20055;-87
2023/01/09 02:20:08;;;;;;;6.82;5.80;;;;;;;;;;5094678;28;20054;-86
2023/01/09 02:22:39;;;;;;;6.57;5.82;;;;;;;;;;5093742;28;20127;-87
2023/01/09 02:25:25;;;;;;;6.43;5.82;;;;;;;;;;5093464;28;20127;-87
2023/01/09 02:27:59;;;;;;;5.55;4.97;;;;;;;;;;5093551;28;20051;-87
2023/01/09 02:30:32;;;;;;;5.55;5.00;;;;;;;;;;5093500;28;20044;-87
2023/01/09 02:33:11;;;;;;;5.63;4.63;;;;;;;;;;5095232;28;20125;-87
2023/01/09 02:35:44;;;;;;;5.28;4.78;;;;;;;;;;5093213;28;20052;-87
2023/01/09 02:38:32;;;;;;;8.35;6.35;;;;;;;;;;5093216;28;20098;-88
2023/01/09 02:41:02;;;;;;;6.30;5.43;;;;;;;;;;5094476;28;20091;-88
2023/01/09 02:43:30;;;;;;;5.70;5.10;;;;;;;;;;5092472;28;20050;-88
2023/01/09 02:45:57;;;;;;;6.03;5.40;;;;;;;;;;5093471;28;20059;-87
2023/01/09 02:48:24;;;;;;;6.45;5.78;;;;;;;;;;5094120;28;20480;-88
2023/01/09 02:50:57;;;;;;;4.07;3.78;;;;;;;;;;5095920;28;20156;-88
2023/01/09 02:53:37;;;;;;;6.38;4.22;;;;;;;;;;5093160;28;20044;-89
2023/01/09 02:56:09;;;;;;;7.75;4.82;;;;;;;;;;5093040;28;20404;-89
2023/01/09 02:58:49;;;;;;;8.40;5.55;;;;;;;;;;5092795;28;20055;-90
2023/01/09 03:01:32;;;;;;;7.38;5.57;;;;;;;;;;5093109;28;20047;-90
2023/01/09 03:04:14;;;;;;;6.28;4.68;;;;;;;;;;5093064;28;20048;-90
2023/01/09 03:06:54;;;;;;;7.13;4.28;;;;;;;;;;5093287;28;20063;-90
2023/01/09 03:09:23;;;;;;;5.00;4.50;;;;;;;;;;5092922;28;20058;-91
2023/01/09 03:11:53;;;;;;;5.32;4.82;;;;;;;;;;5093205;28;20039;-91
2023/01/09 03:14:22;;;;;;;6.50;5.28;;;;;;;;;;5092821;28;20047;-90
2023/01/09 03:16:53;;;;;;;5.57;4.85;;;;;;;;;;5092436;28;20131;-91
2023/01/09 03:19:22;;;;;;;4.25;3.35;;;;;;;;;;5092939;28;20044;-91
2023/01/09 03:21:50;;;;;;;4.93;3.47;;;;;;;;;;5092622;28;20040;-91
2023/01/09 03:24:17;;;;;;;4.35;3.40;;;;;;;;;;5093030;28;20052;-90
2023/01/09 03:26:44;;;;;;;2.97;2.67;;;;;;;;;;5092677;28;20138;-91
2023/01/09 03:29:12;;;;;;;3.22;2.92;;;;;;;;;;5092841;28;20055;-91
2023/01/09 03:31:39;;;;;;;3.63;3.33;;;;;;;;;;5092348;28;20062;-91
2023/01/09 03:34:06;;;;;;;3.30;3.00;;;;;;;;;;5093010;28;20071;-90
2023/01/09 03:36:34;;;;;;;2.90;2.70;;;;;;;;;;5092381;28;20055;-90
2023/01/09 03:39:01;;;;;;;2.75;2.55;;;;;;;;;;5092913;28;20424;-90
2023/01/09 03:41:31;;;;;;;2.65;2.45;;;;;;;;;;5092562;28;20154;-90
2023/01/09 03:43:58;;;;;;;3.10;2.90;;;;;;;;;;5092862;28;20044;-90
2023/01/09 03:46:25;;;;;;;2.60;2.40;;;;;;;;;;5092727;28;20056;-89
2023/01/09 03:48:52;;;;;;;2.47;2.30;;;;;;;;;;5092798;28;20055;-90
2023/01/09 03:51:19;;;;;;;2.55;2.35;;;;;;;;;;5092462;28;20044;-90
2023/01/09 03:53:47;;;;;;;2.13;2.00;;;;;;;;;;5092780;28;20063;-89
2023/01/09 03:56:14;;;;;;;2.53;2.33;;;;;;;;;;5092709;28;20050;-89
2023/01/09 03:58:41;;;;;;;2.25;2.15;;;;;;;;;;5092045;28;20052;-89
2023/01/09 04:01:11;;;;;;;2.50;2.35;;;;;;;;;;5092502;28;20044;-89
2023/01/09 04:03:39;;;;;;;2.75;2.55;;;;;;;;;;5093144;28;20054;-89
2023/01/09 04:06:06;;;;;;;2.78;2.58;;;;;;;;;;5092533;28;20043;-89
2023/01/09 04:08:34;;;;;;;2.20;2.10;;;;;;;;;;5092580;28;20135;-89
2023/01/09 04:11:01;;;;;;;3.22;2.45;;;;;;;;;;5092687;28;20048;-88
2023/01/09 04:13:28;;;;;;;2.47;2.30;;;;;;;;;;5092297;28;20056;-89
2023/01/09 04:15:55;;;;;;;2.53;2.33;;;;;;;;;;5091966;28;20044;-90
2023/01/09 04:18:22;;;;;;;2.80;2.60;;;;;;;;;;5093659;28;20052;-90
2023/01/09 04:20:49;;;;;;;2.88;2.70;;;;;;;;;;5096271;28;20047;-89
2023/01/09 04:23:17;;;;;;;2.70;2.50;;;;;;;;;;5096120;28;20052;-90
2023/01/09 04:25:44;;;;;;;2.30;2.20;;;;;;;;;;5096040;28;20484;-89
2023/01/09 04:28:11;;;;;;;2.13;2.03;;;;;;;;;;5095930;28;20058;-89
2023/01/09 04:30:39;;;;;;;2.63;2.53;;;;;;;;;;5095770;28;20048;-89
2023/01/09 04:33:06;;;;;;;3.05;2.85;;;;;;;;;;5095744;28;20514;-89
2023/01/09 04:35:33;;;;;;;2.92;2.72;;;;;;;;;;5095781;28;20044;-89
2023/01/09 04:38:00;;;;;;;2.75;2.55;;;;;;;;;;5095734;28;20068;-89
2023/01/09 04:40:27;;;;;;;2.80;2.55;;;;;;;;;;5094081;28;20054;-89
2023/01/09 04:42:55;;;;;;;3.33;2.67;;;;;;;;;;5095583;28;20427;-89
2023/01/09 04:45:22;;;;;;;6.93;2.90;;;;;;;;;;5095330;28;20044;-89
2023/01/09 04:47:49;;;;;;;3.50;2.97;;;;;;;;;;5095772;28;20044;-88
2023/01/09 04:50:16;;;;;;;2.85;2.38;;;;;;;;;;5095433;28;20481;-89
2023/01/09 04:52:43;;;;;;;2.50;2.30;;;;;;;;;;5096269;28;20054;-89
2023/01/09 04:55:11;;;;;;;2.33;2.22;;;;;;;;;;5096356;28;20055;-89
2023/01/09 04:57:38;;;;;;;3.70;2.88;;;;;;;;;;5095014;28;20044;-89
2023/01/09 05:00:10;;;;;;;2.95;2.70;;;;;;;;;;5095412;28;20417;-89
2023/01/09 05:02:38;;;;;;;6.07;3.27;;;;;;;;;;5095362;28;20052;-89
2023/01/09 05:05:05;;;;;;;3.15;2.38;;;;;;;;;;5095181;28;20298;-89
2023/01/09 05:07:37;;;;;;;3.75;2.38;;;;;;;;;;5096078;28;20044;-89
2023/01/09 05:10:04;;;;;;;4.15;2.67;;;;;;;;;;5095119;28;20440;-89
2023/01/09 05:12:33;;;;;;;3.15;2.53;;;;;;;;;;5095387;28;20511;-89
2023/01/09 05:15:00;;;;;;;2.80;2.60;;;;;;;;;;5094593;28;20093;-89
2023/01/09 05:17:27;;;;;;;4.85;2.65;;;;;;;;;;5094815;28;20052;-89
2023/01/09 05:19:56;;;;;;;3.40;3.10;;;;;;;;;;5078405;28;20404;-88
2023/01/09 05:22:23;;;;;;;2.85;2.65;;;;;;;;;;5094873;28;20055;-89
2023/01/09 05:24:51;;;;;;;3.63;3.33;;;;;;;;;;5095639;28;20044;-89
2023/01/09 05:27:18;;;;;;;3.45;3.17;;;;;;;;;;5094792;28;20043;-89
2023/01/09 05:29:45;;;;;;;3.90;3.60;;;;;;;;;;5094346;28;20111;-89
2023/01/09 05:32:12;;;;;;;5.20;4.80;;;;;;;;;;5094703;28;20040;-89
2023/01/09 05:34:39;;;;;;;6.78;6.07;;;;;;;;;;5094841;28;20130;-88
2023/01/09 05:37:06;;;;;;;8.90;6.82;;;;;;;;;;5095629;28;20051;-89
2023/01/09 05:39:34;;;;;;;4.38;3.40;;;;;;;;;;5094381;28;20052;-88
2023/01/09 05:42:01;;;;;;;6.15;3.65;;;;;;;;;;5095571;28;20044;-88
2023/01/09 05:44:28;;;;;;;8.35;4.28;;;;;;;;;;5095409;28;20063;-89
2023/01/09 05:46:55;;;;;;;4.20;3.90;;;;;;;;;;5094331;28;20039;-88
2023/01/09 05:49:22;;;;;;;3.15;2.95;;;;;;;;;;5094154;28;20044;-88
2023/01/09 05:51:50;;;;;;;5.93;3.50;;;;;;;;;;5095230;28;20431;-88
2023/01/09 05:54:17;;;;;;;4.40;3.67;;;;;;;;;;5095353;28;20054;-88
2023/01/09 05:56:44;;;;;;;6.22;5.68;;;;;;;;;;5093752;28;20058;-89
2023/01/09 05:59:11;;;;;;;2.47;2.22;;;;;;;;;;5095121;28;20052;-88
2023/01/09 06:01:38;;;;;;;2.40;2.30;;;;;;;;;;5095085;28;20040;-88
2023/01/09 06:04:06;;;;;;;4.05;2.72;;;;;;;;;;5094105;28;20048;-88
2023/01/09 06:06:34;;;;;;;2.55;2.00;;;;;;;;;;5093563;28;20051;-88
2023/01/09 06:09:02;;;;;;;2.72;2.10;;;;;;;;;;5094076;28;20048;-88
2023/01/09 06:11:29;;;;;;;3.42;3.13;;;;;;;;;;5093986;28;20139;-87
2023/01/09 06:13:56;;;;;;;1.80;1.70;;;;;;;;;;5093926;28;20050;-88
2023/01/09 06:16:23;;;;;;;1.88;1.77;;;;;;;;;;5093713;28;20056;-88
2023/01/09 06:18:51;;;;;;;1.50;1.40;;;;;;;;;;5093636;28;20121;-87
2023/01/09 06:21:18;;;;;;;2.15;1.20;;;;;;;;;;5093624;28;20052;-88
2023/01/09 06:23:45;;;;;;;1.85;1.75;;;;;;;;;;5093694;28;20083;-88
2023/01/09 06:26:15;;;;;;;1.50;1.40;;;;;;;;;;5094444;28;20169;-88
2023/01/09 06:28:42;;;;;;;1.88;1.70;;;;;;;;;;5093474;28;20091;-87
2023/01/09 06:31:10;;;;;;;1.90;1.80;;;;;;;;;;5093415;28;20077;-87
2023/01/09 06:33:38;;;;;;;1.42;1.33;;;;;;;;;;5093365;28;20055;-87
2023/01/09 06:36:05;;;;;;;1.27;1.27;;;;;;;;;;5093358;28;20040;-88
2023/01/09 06:38:32;;;;;;;1.63;1.52;;;;;;;;;;5093924;28;20063;-87
2023/01/09 06:41:00;;;;;;;1.00;1.00;;;;;;;;;;5092675;28;20059;-87
2023/01/09 06:43:27;;;;;;;1.75;1.17;;;;;;;;;;5093225;28;20048;-87
2023/01/09 06:45:54;;;;;;;1.70;1.00;;;;;;;;;;5092969;28;20408;-87
2023/01/09 06:48:23;;;;;;;1.00;1.00;;;;;;;;;;5093272;28;20173;-87
2023/01/09 06:50:51;;;;;;;3.03;2.83;;;;;;;;;;5093425;28;20069;-87
2023/01/09 06:53:19;;;;;;;0.70;0.70;;;;;;;;;;5093401;28;20109;-88
2023/01/09 06:55:46;;;;;;;1.10;1.10;;;;;;;;;;5093299;28;20059;-87
2023/01/09 06:58:13;;;;;;;1.17;1.17;;;;;;;;;;5093176;28;20054;-87
2023/01/09 07:00:41;;;;;;;1.70;1.60;;;;;;;;;;5094009;28;20527;-87
2023/01/09 07:03:09;;;;;;;0.90;0.90;;;;;;;;;;5094081;28;20134;-87
2023/01/09 07:05:40;;;;;;;1.35;0.90;;;;;;;;;;5093916;28;20043;-87
2023/01/09 07:08:08;;;;;;;0.80;0.80;;;;;;;;;;5094371;28;20048;-87
2023/01/09 07:10:35;;;;;;;1.73;1.10;;;;;;;;;;5093275;28;20048;-87
2023/01/09 07:13:02;;;;;;;1.30;1.20;;;;;;;;;;5093156;28;20055;-87
2023/01/09 07:15:30;;;;;;;0.75;0.75;;;;;;;;;;5092985;28;20554;-88
2023/01/09 07:17:57;;;;;;;1.63;1.52;;;;;;;;;;5094220;28;20048;-87
2023/01/09 07:20:24;;;;;;;0.85;0.85;;;;;;;;;;5093933;28;20048;-87
2023/01/09 07:22:52;;;;;;;0.60;0.57;;;;;;;;;;5092777;28;20143;-87
2023/01/09 07:25:20;;;;;;;0.55;0.55;;;;;;;;;;5092433;28;20508;-86
2023/01/09 07:27:47;;;;;;;2.50;1.70;;;;;;;;;;5092933;28;20239;-87
2023/01/09 07:30:14;;;;;;;2.33;1.00;;;;;;;;;;5092769;28;20488;-86
2023/01/09 07:32:41;;;;;;;1.75;0.80;;;;;;;;;;5092774;28;20054;-87
2023/01/09 07:35:09;;;;;;;2.08;0.50;;;;;;;;;;5092640;28;20063;-87
2023/01/09 07:37:36;;;;;;;1.08;0.50;;;;;;;;;;5092180;28;20127;-87
2023/01/09 07:40:04;;;;;;;0.32;0.32;;;;;;;;;;5092452;28;20393;-87
2023/01/09 07:42:31;;;;;;;0.50;0.40;;;;;;;;;;5092727;28;20052;-87
2023/01/09 07:44:58;;;;;;;0.25;0.25;;;;;;;;;;5092631;28;20138;-87
2023/01/09 07:47:25;;;;;;;0.30;0.30;;;;;;;;;;5091915;28;20054;-87
2023/01/09 07:49:52;;;;;;;0.30;0.30;;;;;;;;;;5092390;28;20058;-88
2023/01/09 07:52:20;;;;;;;1.30;0.20;;;;;;;;;;5093959;28;20139;-87
2023/01/09 07:54:47;;;;;;;0.20;0.20;;;;;;;;;;5096298;28;20138;-87
2023/01/09 07:57:14;;;;;;;0.20;0.20;;;;;;;;;;5096522;28;20484;-87
2023/01/09 07:59:42;;;;;;;3.92;0.50;;;;;;;;;;5096307;28;20473;-87
2023/01/09 08:02:09;;;;;;;0.10;0.10;;;;;;;;;;5096435;28;20055;-87
2023/01/09 08:04:36;;;;;;;0.65;0.20;;;;;;;;;;5096473;28;20055;-87
2023/01/09 08:07:03;;;;;;;0.10;0.10;;;;;;;;;;5096266;28;20488;-87
2023/01/09 08:09:31;;;;;;;1.13;0.13;;;;;;;;;;5096217;28;20595;-87
2023/01/09 08:11:58;;;;;;;1.10;0.20;;;;;;;;;;5096406;28;20135;-87
2023/01/09 08:14:25;;;;;;;0.47;0.47;;;;;;;;;;5096167;28;20488;-87
2023/01/09 08:16:52;;;;;;;0.95;0.50;;;;;;;;;;5095838;28;20135;-87
2023/01/09 08:19:19;;;;;;;2.95;0.20;;;;;;;;;;5095676;28;20047;-87
2023/01/09 08:21:47;;;;;;;0.00;0.00;;;;;;;;;;5095933;28;20054;-87
2023/01/09 08:24:14;;;;;;;0.73;0.10;;;;;;;;;;5095851;28;20048;-86
2023/01/09 08:26:41;;;;;;;0.03;0.00;;;;;;;;;;5095782;28;20079;-87
2023/01/09 08:29:08;;;;;;;0.70;0.30;;;;;;;;;;5095986;28;20048;-87
2023/01/09 08:31:36;;;;;;;0.00;0.00;;;;;;;;;;5095561;28;20048;-87
2023/01/09 08:34:03;;;;;;;0.10;0.10;;;;;;;;;;5095715;28;20503;-86
2023/01/09 08:36:30;;;;;;;0.00;0.00;;;;;;;;;;5095680;28;20074;-88
2023/01/09 08:38:57;;;;;;;0.10;0.10;;;;;;;;;;5095408;28;20044;-86
2023/01/09 08:47:06;;;;;;;0.20;0.10;;;;;;;;;;5096646;28;20059;-87
2023/01/09 08:49:35;;;;;;;0.95;0.10;;;;;;;;;;5095423;28;20134;-87
2023/01/09 08:52:02;;;;;;;0.10;0.10;;;;;;;;;;5095410;28;20056;-87
2023/01/09 08:54:30;;;;;;;0.22;0.22;;;;;;;;;;5095651;28;20059;-86
2023/01/09 08:56:57;;;;;;;1.13;0.30;;;;;;;;;;5095295;28;20052;-87
2023/01/09 08:59:27;;;;;;;0.60;0.40;;;;;;;;;;5095441;28;20146;-86
2023/01/09 09:01:54;;;;;;;0.30;0.30;;;;;;;;;;5095640;28;20131;-87
2023/01/09 09:04:21;;;;;;;0.30;0.10;;;;;;;;;;5095517;28;20583;-87
2023/01/09 09:06:49;;;;;;;0.73;0.20;;;;;;;;;;5096193;28;20052;-87
2023/01/09 09:09:16;;;;;;;1.15;0.20;;;;;;;;;;5096395;28;20412;-87
2023/01/09 09:11:43;;;;;;;0.57;0.40;;;;;;;;;;5094916;28;20044;-86
2023/01/09 09:16:56;;;;;;;1.45;0.20;;;;;;;;;;5095722;28;20048;-87
2023/01/09 09:19:23;;;;;;;0.50;0.30;;;;;;;;;;5096039;28;20076;-87
2023/01/09 09:21:50;;;;;;;0.08;0.08;;;;;;;;;;5095978;28;20057;-86
2023/01/09 09:24:17;;;;;;;0.20;0.20;;;;;;;;;;5094688;28;20058;-87
2023/01/09 09:26:45;;;;;;;1.63;0.43;;;;;;;;;;5094738;28;20046;-86
2023/01/09 09:29:12;;;;;;;0.55;0.20;;;;;;;;;;5094882;28;20048;-87
2023/01/09 09:31:39;;;;;;;6.32;0.68;;;;;;;;;;5095748;28;20048;-86
2023/01/09 09:34:06;;;;;;;0.30;0.20;;;;;;;;;;5095842;28;20044;-86
2023/01/09 09:36:34;;;;;;;0.10;0.10;;;;;;;;;;5095147;28;20423;-86
2023/01/09 09:39:06;;;;;;;1.63;0.20;;;;;;;;;;5094437;28;20047;-87
2023/01/09 09:44:43;;;;;;;0.20;0.17;;;;;;;;;;5095324;28;20104;-87
2023/01/09 09:47:37;;;;;;;0.65;0.20;;;;;;;;;;5095201;28;20052;-87
2023/01/09 09:50:10;;;;;;;0.40;0.20;;;;;;;;;;5095297;28;20048;-87
2023/01/09 09:52:58;;;;;;;0.68;0.17;;;;;;;;;;5095374;28;20110;-86
2023/01/09 09:55:29;;;;;;;1.00;0.30;;;;;;;;;;5093410;28;20047;-87
2023/01/09 09:57:58;;;;;;;1.10;0.52;;;;;;;;;;5093620;28;20059;-87
2023/01/09 10:00:25;;;;;;;0.25;0.20;;;;;;;;;;5094988;28;20048;-87
2023/01/09 10:03:03;;;;;;;5.80;0.20;;;;;;;;;;5095192;28;20044;-87
2023/01/09 10:05:31;;;;;;;0.98;0.30;;;;;;;;;;5093817;28;20507;-86
2023/01/09 10:08:02;;;;;;;0.57;0.30;;;;;;;;;;5094776;28;20556;-87
2023/01/09 10:10:52;;;;;;;0.73;0.20;;;;;;;;;;5094161;28;20105;-87
2023/01/09 10:16:28;;;;;;;7.68;2.47;;;;;;;;;;5094544;28;20052;-88
2023/01/09 10:19:03;;;;;;;0.82;0.40;;;;;;;;;;5093675;28;20047;-86
2023/01/09 10:21:37;;;;;;;2.67;0.32;;;;;;;;;;5093595;28;20055;-87
2023/01/09 10:24:23;;;;;;;1.15;0.28;;;;;;;;;;5094410;28;20063;-86
2023/01/09 10:26:53;;;;;;;2.22;0.40;;;;;;;;;;5093163;28;20062;-87
2023/01/09 10:29:43;;;;;;;3.50;0.30;;;;;;;;;;5093553;28;20044;-87
2023/01/09 10:32:33;;;;;;;2.45;0.40;;;;;;;;;;5093537;28;20048;-87
2023/01/09 10:35:19;;;;;;;1.05;0.30;;;;;;;;;;5093479;28;20052;-86
2023/01/09 10:37:47;;;;;;;0.50;0.38;;;;;;;;;;5093109;28;20059;-86
2023/01/09 10:40:24;;;;;;;1.13;0.40;;;;;;;;;;5093289;28;20134;-87
2023/01/09 10:42:58;;;;;;;0.95;0.40;;;;;;;;;;5091230;28;20396;-86
2023/01/09 10:45:29;;;;;;;1.38;0.32;;;;;;;;;;5093105;28;20415;-87
2023/01/09 10:48:05;;;;;;;0.25;0.25;;;;;;;;;;5092404;28;20506;-89
2023/01/09 10:50:35;;;;;;;2.15;0.38;;;;;;;;;;5093293;28;20055;-86
2023/01/09 10:53:07;;;;;;;4.00;0.40;;;;;;;;;;5093249;28;20062;-86
2023/01/09 10:55:38;;;;;;;1.00;0.20;;;;;;;;;;5093069;28;20048;-87
2023/01/09 10:58:13;;;;;;;0.40;0.20;;;;;;;;;;5093278;28;20044;-86
2023/01/09 11:00:40;;;;;;;1.40;0.20;;;;;;;;;;5092757;28;20048;-86
2023/01/09 11:03:15;;;;;;;0.35;0.22;;;;;;;;;;5093048;28;20056;-88
2023/01/09 11:05:51;;;;;;;0.38;0.28;;;;;;;;;;5092954;28;20059;-87
2023/01/09 11:08:22;;;;;;;0.75;0.15;;;;;;;;;;5092938;28;20052;-87
2023/01/09 11:10:51;;;;;;;2.30;0.47;;;;;;;;;;5092690;28;20474;-87
2023/01/09 11:13:21;;;;;;;1.35;0.20;;;;;;;;;;5092551;28;20052;-86
2023/01/09 11:16:21;;;;;;;1.00;0.20;;;;;;;;;;5092503;28;20052;-86
2023/01/09 11:19:00;;;;;;;0.75;0.10;;;;;;;;;;5038769;28;20051;-86
2023/01/09 11:21:27;;;;;;;0.65;0.22;;;;;;;;;;5092957;28;20067;-87
2023/01/09 11:24:14;;;;;;;0.25;0.10;;;;;;;;;;5092829;28;20079;-87
2023/01/09 11:26:41;;;;;;;2.05;0.30;;;;;;;;;;5092197;28;20062;-86
2023/01/09 11:29:15;;;;;;;0.10;0.10;;;;;;;;;;5092655;28;20052;-87
2023/01/09 11:31:49;;;;;;;1.83;0.70;;;;;;;;;;5092129;28;20048;-86
2023/01/09 11:34:28;;;;;;;2.08;0.32;;;;;;;;;;5092368;28;20131;-87
2023/01/09 11:37:07;;;;;;;1.40;0.20;;;;;;;;;;5092624;28;20044;-87
2023/01/09 11:39:36;;;;;;;3.72;0.22;;;;;;;;;;5092241;28;20052;-86
2023/01/09 11:42:05;;;;;;;0.40;0.17;;;;;;;;;;5092652;28;20048;-86
2023/01/09 11:44:32;;;;;;;0.98;0.30;;;;;;;;;;5092362;28;20054;-86
2023/01/09 11:47:00;;;;;;;1.02;0.25;;;;;;;;;;5092403;28;20052;-86
2023/01/09 11:49:29;;;;;;;0.68;0.30;;;;;;;;;;5092565;28;20048;-86
2023/01/09 11:52:16;;;;;;;0.40;0.20;;;;;;;;;;5092109;28;20052;-87
2023/01/09 11:54:49;;;;;;;0.90;0.30;;;;;;;;;;5092481;28;20068;-87
2023/01/09 11:57:20;;;;;;;1.13;0.15;;;;;;;;;;5092202;28;20062;-87
2023/01/09 11:59:47;;;;;;;0.95;0.20;;;;;;;;;;5092946;28;20131;-87
2023/01/09 12:02:34;;;;;;;0.47;0.20;;;;;;;;;;5092423;28;20056;-86
2023/01/09 12:05:20;;;;;;;0.88;0.30;;;;;;;;;;5092161;28;20051;-87
2023/01/09 12:07:56;;;;;;;1.75;0.32;;;;;;;;;;5092344;28;20048;-86
2023/01/09 12:10:49;;;;;;;3.95;0.50;;;;;;;;;;5091963;28;20469;-86
2023/01/09 12:13:35;;;;;;;4.93;0.50;;;;;;;;;;5088300;28;20052;-86
2023/01/09 12:16:09;;;;;;;0.65;0.35;;;;;;;;;;5091843;28;20135;-86
2023/01/09 12:18:46;;;;;;;0.20;0.15;;;;;;;;;;5092291;28;20488;-86
2023/01/09 12:21:33;;;;;;;0.15;0.15;;;;;;;;;;5093078;28;20527;-86
2023/01/09 12:24:19;;;;;;;1.70;0.28;;;;;;;;;;5092404;28;20047;-87
2023/01/09 12:26:53;;;;;;;2.13;0.40;;;;;;;;;;5093071;28;20052;-87
2023/01/09 12:29:31;;;;;;;1.48;0.40;;;;;;;;;;5091795;28;20055;-86
2023/01/09 12:32:20;;;;;;;0.40;0.30;;;;;;;;;;5091862;28;20048;-87
2023/01/09 12:35:06;;;;;;;2.63;0.57;;;;;;;;;;5092909;28;20055;-86
2023/01/09 12:37:56;;;;;;;0.73;0.30;;;;;;;;;;5091826;28;20051;-86
2023/01/09 12:40:32;;;;;;;1.50;0.60;;;;;;;;;;5094482;28;20066;-86
2023/01/09 12:43:00;;;;;;;0.77;0.30;;;;;;;;;;5104872;28;20500;-87
2023/01/09 12:45:35;;;;;;;1.85;0.35;;;;;;;;;;5096090;28;20440;-86
2023/01/09 12:48:22;;;;;;;0.35;0.20;;;;;;;;;;5096664;28;20466;-86
2023/01/09 12:51:08;;;;;;;0.50;0.20;;;;;;;;;;5095338;28;20044;-86
2023/01/09 12:53:40;;;;;;;0.17;0.17;;;;;;;;;;5095946;28;20515;-85
2023/01/09 12:56:10;;;;;;;1.80;0.20;;;;;;;;;;5096038;28;20056;-87
2023/01/09 12:58:52;;;;;;;1.52;0.30;;;;;;;;;;5095675;28;20055;-87
2023/01/09 13:01:25;;;;;;;0.70;0.47;;;;;;;;;;5095110;28;20044;-85
2023/01/09 13:04:12;;;;;;;2.42;0.30;;;;;;;;;;5096122;28;20052;-87
2023/01/09 13:06:42;;;;;;;0.20;0.20;;;;;;;;;;5094846;28;20054;-87
2023/01/09 13:09:25;;;;;;;0.30;0.25;;;;;;;;;;5094947;28;20048;-86
2023/01/09 13:12:03;;;;;;;0.47;0.35;;;;;;;;;;5095419;28;20087;-86
2023/01/09 13:14:43;;;;;;;0.60;0.20;;;;;;;;;;5095069;28;20446;-87
2023/01/09 13:17:14;;;;;;;0.40;0.20;;;;;;;;;;5095716;28;20420;-86
2023/01/09 13:19:44;;;;;;;0.25;0.15;;;;;;;;;;5094719;28;20086;-86
2023/01/09 13:22:12;;;;;;;1.35;0.10;;;;;;;;;;5095896;28;20055;-86
2023/01/09 13:25:19;;;;;;;0.50;0.30;;;;;;;;;;5094779;28;20055;-87
2023/01/09 13:27:51;;;;;;;0.30;0.30;;;;;;;;;;4997575;28;20046;-87
2023/01/09 13:30:25;;;;;;;0.93;0.40;;;;;;;;;;4997244;28;20481;-86
2023/01/09 13:33:07;;;;;;;1.00;0.35;;;;;;;;;;5051399;28;20126;-87
2023/01/09 13:35:46;;;;;;;0.20;0.20;;;;;;;;;;5094613;28;20066;-87
2023/01/09 13:38:17;;;;;;;1.30;1.20;;;;;;;;;;5094708;28;20508;-87
2023/01/09 13:40:44;;;;;;;0.60;0.60;;;;;;;;;;5094386;28;20055;-87
2023/01/09 13:43:13;;;;;;;1.20;0.60;;;;;;;;;;5094530;28;20496;-85
2023/01/09 13:45:41;;;;;;;0.30;0.28;;;;;;;;;;5094158;28;20056;-87
2023/01/09 13:48:08;;;;;;;0.77;0.20;;;;;;;;;;5094456;28;20514;-86
2023/01/09 13:50:36;;;;;;;1.05;0.30;;;;;;;;;;5094004;28;20132;-87
2023/01/09 13:53:18;;;;;;;0.20;0.17;;;;;;;;;;5093747;28;20065;-86
2023/01/09 13:55:58;;;;;;;0.52;0.38;;;;;;;;;;5094217;28;20071;-87
2023/01/09 13:58:30;;;;;;;0.30;0.30;;;;;;;;;;5094383;28;20492;-87
2023/01/09 14:00:59;;;;;;;0.40;0.35;;;;;;;;;;5093993;28;20074;-85
2023/01/09 14:03:31;;;;;;;0.75;0.30;;;;;;;;;;5094365;28;20059;-87
2023/01/09 14:05:59;;;;;;;0.60;0.60;;;;;;;;;;5094286;28;20510;-87
2023/01/09 14:08:30;;;;;;;1.88;0.40;;;;;;;;;;5094211;28;20480;-86
2023/01/09 14:11:00;;;;;;;0.32;0.32;;;;;;;;;;5094188;28;20051;-87
2023/01/09 14:13:31;;;;;;;1.05;0.60;;;;;;;;;;5094119;28;20048;-87
2023/01/09 14:16:14;;;;;;;0.88;0.80;;;;;;;;;;5093346;28;20439;-86
2023/01/09 14:18:46;;;;;;;1.40;0.60;;;;;;;;;;5093991;28;20055;-87
2023/01/09 14:21:14;;;;;;;0.50;0.50;;;;;;;;;;5093459;28;20105;-87
2023/01/09 14:24:01;;;;;;;1.27;0.30;;;;;;;;;;5093912;28;20040;-88
2023/01/09 14:26:46;;;;;;;1.40;0.60;;;;;;;;;;5093414;28;20485;-87
2023/01/09 14:29:32;;;;;;;1.95;0.50;;;;;;;;;;5093685;28;20044;-87
2023/01/09 14:32:18;;;;;;;1.98;0.50;;;;;;;;;;5093494;28;20052;-87
2023/01/09 14:34:47;;;;;;;2.25;0.65;;;;;;;;;;5093428;28;20067;-86
2023/01/09 14:37:14;;;;;;;0.73;0.57;;;;;;;;;;5093423;28;20055;-86
2023/01/09 14:39:43;;;;;;;3.38;1.23;;;;;;;;;;5093360;28;20052;-87
2023/01/09 14:42:14;;;;;;;2.58;0.52;;;;;;;;;;5093495;28;20048;-86
2023/01/09 14:44:46;;;;;;;0.50;0.40;;;;;;;;;;5093398;28;20127;-87
2023/01/09 14:47:19;;;;;;;0.73;0.50;;;;;;;;;;5093152;28;20564;-87
2023/01/09 14:49:46;;;;;;;0.83;0.60;;;;;;;;;;5093214;28;20062;-87
2023/01/09 14:52:19;;;;;;;2.70;0.73;;;;;;;;;;5093219;28;20048;-87
2023/01/09 14:54:48;;;;;;;1.48;0.50;;;;;;;;;;5093342;28;20044;-87
2023/01/09 14:57:29;;;;;;;2.83;0.93;;;;;;;;;;5092830;28;20062;-87
2023/01/09 15:00:00;;;;;;;0.80;0.40;;;;;;;;;;5093809;28;20403;-86
2023/01/09 15:02:28;;;;;;;1.48;0.40;;;;;;;;;;5092083;28;20044;-87
2023/01/09 15:04:57;;;;;;;1.25;0.40;;;;;;;;;;5093846;28;20044;-87
2023/01/09 15:07:29;;;;;;;0.90;0.30;;;;;;;;;;5092727;28;20508;-86
2023/01/09 15:10:00;;;;;;;2.17;0.30;;;;;;;;;;5093788;28;20039;-87
2023/01/09 15:12:28;;;;;;;0.47;0.47;;;;;;;;;;5093968;28;20083;-87
2023/01/09 15:14:57;;;;;;;4.22;0.98;;;;;;;;;;5093472;28;20048;-87
2023/01/09 15:17:26;;;;;;;0.50;0.50;;;;;;;;;;5092751;28;20105;-86
2023/01/09 15:19:54;;;;;;;2.17;1.20;;;;;;;;;;5092737;28;20056;-86
2023/01/09 15:22:23;;;;;;;1.55;0.70;;;;;;;;;;5093618;28;20504;-87